Fort Raleigh City, North Carolina
Current Conditions -  °F | °C
As of 10:15 AM on Thursday 18 Dec 2014 (Local Time) from KMQI Reporting Station
Clear Clear  
Wind Chill: 38°   Ceiling: Unl
Heat Index: 44°   Visibility: 10mi
Dew Point: 31°   Wind: 13mph
Humidity: 60%   Direction: 10°N
Pressure: 30.17"   Gusts: NA
Location:  35.8834°N, 75.6616°W
Report Text: KMQI 181515Z AUTO 01011KT 10SM CLR 07/00 A3017 RMK AO2 T00691004
Loading
Personal Weather Stations






























Interactive Weather Map New forecast layout! Learn more

10-Day Weather Forecast

Advertisements
Track Severe Weather on mobile